sensor_id;sensor_type;location;lat;lon;timestamp;P1;durP1;ratioP1;P2;durP2;ratioP2
15116;SDS011;7659;51.038;13.786;2023-12-28T00:00:26;12.20;;;5.22;;
15116;SDS011;7659;51.038;13.786;2023-12-28T00:02:52;12.18;;;5.60;;
15116;SDS011;7659;51.038;13.786;2023-12-28T00:05:17;13.10;;;5.15;;
15116;SDS011;7659;51.038;13.786;2023-12-28T00:07:43;12.38;;;4.90;;
15116;SDS011;7659;51.038;13.786;2023-12-28T00:10:08;14.10;;;4.95;;
15116;SDS011;7659;51.038;13.786;2023-12-28T00:12:34;21.17;;;8.55;;
15116;SDS011;7659;51.038;13.786;2023-12-28T00:14:59;23.50;;;12.07;;
15116;SDS011;7659;51.038;13.786;2023-12-28T00:17:25;11.63;;;5.03;;
15116;SDS011;7659;51.038;13.786;2023-12-28T00:19:50;12.68;;;5.00;;
15116;SDS011;7659;51.038;13.786;2023-12-28T00:22:16;11.90;;;5.10;;
15116;SDS011;7659;51.038;13.786;2023-12-28T00:24:41;11.18;;;4.97;;
15116;SDS011;7659;51.038;13.786;2023-12-28T00:27:07;12.85;;;5.50;;
15116;SDS011;7659;51.038;13.786;2023-12-28T00:29:32;12.93;;;4.65;;
15116;SDS011;7659;51.038;13.786;2023-12-28T00:31:59;10.70;;;4.45;;
15116;SDS011;7659;51.038;13.786;2023-12-28T00:34:25;12.05;;;4.50;;
15116;SDS011;7659;51.038;13.786;2023-12-28T00:36:50;14.27;;;4.80;;
15116;SDS011;7659;51.038;13.786;2023-12-28T00:39:16;11.05;;;4.70;;
15116;SDS011;7659;51.038;13.786;2023-12-28T00:41:41;9.07;;;4.20;;
15116;SDS011;7659;51.038;13.786;2023-12-28T00:44:07;8.80;;;4.20;;
15116;SDS011;7659;51.038;13.786;2023-12-28T00:46:35;11.15;;;4.60;;
15116;SDS011;7659;51.038;13.786;2023-12-28T00:49:00;11.32;;;4.53;;
15116;SDS011;7659;51.038;13.786;2023-12-28T00:51:26;11.45;;;4.60;;
15116;SDS011;7659;51.038;13.786;2023-12-28T00:53:51;13.85;;;5.00;;
15116;SDS011;7659;51.038;13.786;2023-12-28T00:56:17;10.63;;;4.65;;
15116;SDS011;7659;51.038;13.786;2023-12-28T00:58:42;8.27;;;4.10;;
15116;SDS011;7659;51.038;13.786;2023-12-28T01:01:09;9.95;;;4.40;;
15116;SDS011;7659;51.038;13.786;2023-12-28T01:03:34;12.15;;;4.50;;
15116;SDS011;7659;51.038;13.786;2023-12-28T01:06:00;9.20;;;3.90;;
15116;SDS011;7659;51.038;13.786;2023-12-28T01:08:25;9.40;;;4.30;;
15116;SDS011;7659;51.038;13.786;2023-12-28T01:10:51;12.48;;;4.05;;
15116;SDS011;7659;51.038;13.786;2023-12-28T01:13:16;9.52;;;4.18;;
15116;SDS011;7659;51.038;13.786;2023-12-28T01:15:42;9.02;;;3.67;;
15116;SDS011;7659;51.038;13.786;2023-12-28T01:18:08;11.35;;;4.43;;
15116;SDS011;7659;51.038;13.786;2023-12-28T01:20:34;10.77;;;3.85;;
15116;SDS011;7659;51.038;13.786;2023-12-28T01:23:00;10.73;;;4.30;;
15116;SDS011;7659;51.038;13.786;2023-12-28T01:25:25;13.00;;;4.72;;
15116;SDS011;7659;51.038;13.786;2023-12-28T01:27:51;11.60;;;4.38;;
15116;SDS011;7659;51.038;13.786;2023-12-28T01:30:16;13.45;;;4.55;;
15116;SDS011;7659;51.038;13.786;2023-12-28T01:32:42;10.38;;;4.35;;
15116;SDS011;7659;51.038;13.786;2023-12-28T01:35:07;7.50;;;4.10;;
15116;SDS011;7659;51.038;13.786;2023-12-28T01:37:33;9.48;;;4.50;;
15116;SDS011;7659;51.038;13.786;2023-12-28T01:39:59;7.78;;;4.05;;
15116;SDS011;7659;51.038;13.786;2023-12-28T01:42:25;13.55;;;4.20;;
15116;SDS011;7659;51.038;13.786;2023-12-28T01:44:50;11.45;;;4.63;;
15116;SDS011;7659;51.038;13.786;2023-12-28T01:47:16;11.32;;;4.78;;
15116;SDS011;7659;51.038;13.786;2023-12-28T01:49:41;9.73;;;4.38;;
15116;SDS011;7659;51.038;13.786;2023-12-28T01:52:07;11.82;;;4.63;;
15116;SDS011;7659;51.038;13.786;2023-12-28T01:54:33;9.57;;;4.13;;
15116;SDS011;7659;51.038;13.786;2023-12-28T01:56:59;10.82;;;4.32;;
15116;SDS011;7659;51.038;13.786;2023-12-28T01:59:26;11.05;;;4.57;;
15116;SDS011;7659;51.038;13.786;2023-12-28T02:01:51;11.60;;;4.13;;
15116;SDS011;7659;51.038;13.786;2023-12-28T02:04:17;10.07;;;4.03;;
15116;SDS011;7659;51.038;13.786;2023-12-28T02:06:42;10.05;;;4.45;;
15116;SDS011;7659;51.038;13.786;2023-12-28T02:09:08;9.45;;;3.67;;
15116;SDS011;7659;51.038;13.786;2023-12-28T02:11:33;10.10;;;4.28;;
15116;SDS011;7659;51.038;13.786;2023-12-28T02:13:59;12.05;;;4.35;;
15116;SDS011;7659;51.038;13.786;2023-12-28T02:16:35;8.70;;;4.47;;
15116;SDS011;7659;51.038;13.786;2023-12-28T02:19:09;8.88;;;3.90;;
15116;SDS011;7659;51.038;13.786;2023-12-28T02:21:39;7.10;;;4.05;;
15116;SDS011;7659;51.038;13.786;2023-12-28T02:24:05;10.65;;;4.40;;
15116;SDS011;7659;51.038;13.786;2023-12-28T02:26:31;8.43;;;3.63;;
15116;SDS011;7659;51.038;13.786;2023-12-28T02:28:56;10.32;;;4.45;;
15116;SDS011;7659;51.038;13.786;2023-12-28T02:31:26;7.22;;;3.42;;
15116;SDS011;7659;51.038;13.786;2023-12-28T02:33:54;7.45;;;4.20;;
15116;SDS011;7659;51.038;13.786;2023-12-28T02:36:22;7.65;;;4.13;;
15116;SDS011;7659;51.038;13.786;2023-12-28T02:38:48;9.20;;;3.83;;
15116;SDS011;7659;51.038;13.786;2023-12-28T02:41:14;6.18;;;3.70;;
15116;SDS011;7659;51.038;13.786;2023-12-28T02:43:40;6.53;;;3.50;;
15116;SDS011;7659;51.038;13.786;2023-12-28T02:46:06;9.68;;;4.28;;
15116;SDS011;7659;51.038;13.786;2023-12-28T02:48:31;9.27;;;4.10;;
15116;SDS011;7659;51.038;13.786;2023-12-28T02:50:57;9.80;;;3.60;;
15116;SDS011;7659;51.038;13.786;2023-12-28T02:53:22;12.25;;;3.75;;
15116;SDS011;7659;51.038;13.786;2023-12-28T02:55:48;8.15;;;3.58;;
15116;SDS011;7659;51.038;13.786;2023-12-28T02:58:13;9.30;;;3.58;;
15116;SDS011;7659;51.038;13.786;2023-12-28T03:00:38;8.65;;;3.80;;
15116;SDS011;7659;51.038;13.786;2023-12-28T03:03:04;8.48;;;3.65;;
15116;SDS011;7659;51.038;13.786;2023-12-28T03:05:30;10.05;;;3.78;;
15116;SDS011;7659;51.038;13.786;2023-12-28T03:07:55;8.57;;;3.00;;
15116;SDS011;7659;51.038;13.786;2023-12-28T03:10:21;7.47;;;3.70;;
15116;SDS011;7659;51.038;13.786;2023-12-28T03:12:46;8.00;;;3.60;;
15116;SDS011;7659;51.038;13.786;2023-12-28T03:15:12;6.20;;;3.50;;
15116;SDS011;7659;51.038;13.786;2023-12-28T03:17:38;7.60;;;3.28;;
15116;SDS011;7659;51.038;13.786;2023-12-28T03:20:03;8.13;;;3.60;;
15116;SDS011;7659;51.038;13.786;2023-12-28T03:22:29;8.75;;;4.22;;
15116;SDS011;7659;51.038;13.786;2023-12-28T03:24:54;7.15;;;3.08;;
15116;SDS011;7659;51.038;13.786;2023-12-28T03:27:20;7.25;;;2.88;;
15116;SDS011;7659;51.038;13.786;2023-12-28T03:29:45;7.28;;;2.65;;
15116;SDS011;7659;51.038;13.786;2023-12-28T03:32:11;4.93;;;2.47;;
15116;SDS011;7659;51.038;13.786;2023-12-28T03:34:36;6.97;;;3.22;;
15116;SDS011;7659;51.038;13.786;2023-12-28T03:37:03;5.88;;;2.50;;
15116;SDS011;7659;51.038;13.786;2023-12-28T03:39:28;6.40;;;3.10;;
15116;SDS011;7659;51.038;13.786;2023-12-28T03:41:54;4.03;;;2.40;;
15116;SDS011;7659;51.038;13.786;2023-12-28T03:44:20;5.80;;;2.50;;
15116;SDS011;7659;51.038;13.786;2023-12-28T03:46:49;6.15;;;2.95;;
15116;SDS011;7659;51.038;13.786;2023-12-28T03:49:15;4.78;;;2.58;;
15116;SDS011;7659;51.038;13.786;2023-12-28T03:51:41;7.93;;;2.97;;
15116;SDS011;7659;51.038;13.786;2023-12-28T03:54:06;6.97;;;3.25;;
15116;SDS011;7659;51.038;13.786;2023-12-28T03:56:31;5.55;;;2.45;;
15116;SDS011;7659;51.038;13.786;2023-12-28T03:58:58;5.65;;;2.80;;
15116;SDS011;7659;51.038;13.786;2023-12-28T04:01:23;7.38;;;3.25;;
15116;SDS011;7659;51.038;13.786;2023-12-28T04:03:49;5.60;;;3.40;;
15116;SDS011;7659;51.038;13.786;2023-12-28T04:06:15;8.02;;;3.45;;
15116;SDS011;7659;51.038;13.786;2023-12-28T04:08:41;9.20;;;3.75;;
15116;SDS011;7659;51.038;13.786;2023-12-28T04:11:07;8.75;;;3.78;;
15116;SDS011;7659;51.038;13.786;2023-12-28T04:13:34;6.95;;;3.55;;
15116;SDS011;7659;51.038;13.786;2023-12-28T04:15:59;12.95;;;3.88;;
15116;SDS011;7659;51.038;13.786;2023-12-28T04:18:25;6.85;;;3.30;;
15116;SDS011;7659;51.038;13.786;2023-12-28T04:20:51;9.93;;;3.72;;
15116;SDS011;7659;51.038;13.786;2023-12-28T04:23:16;7.30;;;3.75;;
15116;SDS011;7659;51.038;13.786;2023-12-28T04:25:42;6.45;;;3.50;;
15116;SDS011;7659;51.038;13.786;2023-12-28T04:28:07;6.43;;;3.15;;
15116;SDS011;7659;51.038;13.786;2023-12-28T04:30:33;8.82;;;3.28;;
15116;SDS011;7659;51.038;13.786;2023-12-28T04:32:59;6.88;;;2.97;;
15116;SDS011;7659;51.038;13.786;2023-12-28T04:35:25;8.45;;;3.42;;
15116;SDS011;7659;51.038;13.786;2023-12-28T04:37:51;5.13;;;2.90;;
15116;SDS011;7659;51.038;13.786;2023-12-28T04:40:16;6.82;;;2.88;;
15116;SDS011;7659;51.038;13.786;2023-12-28T04:42:42;7.63;;;3.17;;
15116;SDS011;7659;51.038;13.786;2023-12-28T04:45:08;4.97;;;2.80;;
15116;SDS011;7659;51.038;13.786;2023-12-28T04:47:34;5.65;;;2.70;;
15116;SDS011;7659;51.038;13.786;2023-12-28T04:50:00;4.88;;;2.40;;
15116;SDS011;7659;51.038;13.786;2023-12-28T04:52:26;6.80;;;2.95;;
15116;SDS011;7659;51.038;13.786;2023-12-28T04:54:52;7.60;;;3.30;;
15116;SDS011;7659;51.038;13.786;2023-12-28T04:57:17;4.95;;;2.65;;
15116;SDS011;7659;51.038;13.786;2023-12-28T04:59:43;5.60;;;2.70;;
15116;SDS011;7659;51.038;13.786;2023-12-28T05:02:08;7.38;;;2.50;;
15116;SDS011;7659;51.038;13.786;2023-12-28T05:04:36;5.80;;;2.28;;
15116;SDS011;7659;51.038;13.786;2023-12-28T05:07:03;3.95;;;2.00;;
15116;SDS011;7659;51.038;13.786;2023-12-28T05:09:29;3.83;;;2.15;;
15116;SDS011;7659;51.038;13.786;2023-12-28T05:11:54;5.07;;;2.45;;
15116;SDS011;7659;51.038;13.786;2023-12-28T05:14:20;7.88;;;2.60;;
15116;SDS011;7659;51.038;13.786;2023-12-28T05:16:45;5.35;;;2.78;;
15116;SDS011;7659;51.038;13.786;2023-12-28T05:19:11;4.22;;;2.00;;
15116;SDS011;7659;51.038;13.786;2023-12-28T05:21:36;7.03;;;2.25;;
15116;SDS011;7659;51.038;13.786;2023-12-28T05:24:02;4.63;;;2.15;;
15116;SDS011;7659;51.038;13.786;2023-12-28T05:26:27;5.97;;;2.33;;
15116;SDS011;7659;51.038;13.786;2023-12-28T05:28:53;4.82;;;2.45;;
15116;SDS011;7659;51.038;13.786;2023-12-28T05:31:18;3.85;;;2.40;;
15116;SDS011;7659;51.038;13.786;2023-12-28T05:33:44;4.38;;;2.20;;
15116;SDS011;7659;51.038;13.786;2023-12-28T05:36:09;5.70;;;2.75;;
15116;SDS011;7659;51.038;13.786;2023-12-28T05:38:34;7.13;;;3.15;;
15116;SDS011;7659;51.038;13.786;2023-12-28T05:41:00;4.82;;;2.45;;
15116;SDS011;7659;51.038;13.786;2023-12-28T05:43:25;7.15;;;3.13;;
15116;SDS011;7659;51.038;13.786;2023-12-28T05:45:51;6.85;;;3.00;;
15116;SDS011;7659;51.038;13.786;2023-12-28T05:48:16;5.10;;;2.63;;
15116;SDS011;7659;51.038;13.786;2023-12-28T05:50:42;7.60;;;2.58;;
15116;SDS011;7659;51.038;13.786;2023-12-28T05:53:07;3.70;;;2.33;;
15116;SDS011;7659;51.038;13.786;2023-12-28T05:55:37;6.88;;;3.03;;
15116;SDS011;7659;51.038;13.786;2023-12-28T05:58:02;6.03;;;3.40;;
15116;SDS011;7659;51.038;13.786;2023-12-28T06:00:28;6.13;;;2.63;;
15116;SDS011;7659;51.038;13.786;2023-12-28T06:02:53;4.15;;;2.53;;
15116;SDS011;7659;51.038;13.786;2023-12-28T06:05:19;4.65;;;2.60;;
15116;SDS011;7659;51.038;13.786;2023-12-28T06:07:44;4.95;;;3.00;;
15116;SDS011;7659;51.038;13.786;2023-12-28T06:10:10;9.50;;;3.42;;
15116;SDS011;7659;51.038;13.786;2023-12-28T06:12:35;7.15;;;2.60;;
15116;SDS011;7659;51.038;13.786;2023-12-28T06:15:01;6.85;;;3.20;;
15116;SDS011;7659;51.038;13.786;2023-12-28T06:17:28;5.28;;;2.95;;
15116;SDS011;7659;51.038;13.786;2023-12-28T06:19:53;8.80;;;3.42;;
15116;SDS011;7659;51.038;13.786;2023-12-28T06:22:19;5.07;;;2.70;;
15116;SDS011;7659;51.038;13.786;2023-12-28T06:24:44;7.88;;;3.17;;
15116;SDS011;7659;51.038;13.786;2023-12-28T06:27:11;6.65;;;4.13;;
15116;SDS011;7659;51.038;13.786;2023-12-28T06:29:36;7.07;;;4.20;;
15116;SDS011;7659;51.038;13.786;2023-12-28T06:32:01;8.05;;;3.00;;
15116;SDS011;7659;51.038;13.786;2023-12-28T06:34:27;7.38;;;3.03;;
15116;SDS011;7659;51.038;13.786;2023-12-28T06:36:52;6.03;;;2.75;;
15116;SDS011;7659;51.038;13.786;2023-12-28T06:39:18;8.65;;;2.92;;
15116;SDS011;7659;51.038;13.786;2023-12-28T06:41:46;8.45;;;3.65;;
15116;SDS011;7659;51.038;13.786;2023-12-28T06:44:12;8.38;;;3.45;;
15116;SDS011;7659;51.038;13.786;2023-12-28T06:46:39;9.13;;;4.07;;
15116;SDS011;7659;51.038;13.786;2023-12-28T06:49:04;10.77;;;4.97;;
15116;SDS011;7659;51.038;13.786;2023-12-28T06:51:31;8.68;;;3.47;;
15116;SDS011;7659;51.038;13.786;2023-12-28T06:53:56;6.28;;;3.30;;
15116;SDS011;7659;51.038;13.786;2023-12-28T06:56:22;10.43;;;3.97;;
15116;SDS011;7659;51.038;13.786;2023-12-28T06:58:48;7.28;;;3.20;;
15116;SDS011;7659;51.038;13.786;2023-12-28T07:01:13;5.18;;;2.60;;
15116;SDS011;7659;51.038;13.786;2023-12-28T07:03:39;3.80;;;1.73;;
15116;SDS011;7659;51.038;13.786;2023-12-28T07:06:04;2.55;;;1.55;;
15116;SDS011;7659;51.038;13.786;2023-12-28T07:08:30;3.20;;;1.63;;
15116;SDS011;7659;51.038;13.786;2023-12-28T07:10:55;3.45;;;1.50;;
15116;SDS011;7659;51.038;13.786;2023-12-28T07:13:22;3.40;;;1.45;;
15116;SDS011;7659;51.038;13.786;2023-12-28T07:15:48;3.28;;;1.45;;
15116;SDS011;7659;51.038;13.786;2023-12-28T07:18:13;5.07;;;1.17;;
15116;SDS011;7659;51.038;13.786;2023-12-28T07:20:39;2.03;;;1.20;;
15116;SDS011;7659;51.038;13.786;2023-12-28T07:23:04;3.90;;;1.50;;
15116;SDS011;7659;51.038;13.786;2023-12-28T07:25:29;3.83;;;1.65;;
15116;SDS011;7659;51.038;13.786;2023-12-28T07:27:55;2.15;;;1.10;;
15116;SDS011;7659;51.038;13.786;2023-12-28T07:30:20;3.83;;;1.20;;
15116;SDS011;7659;51.038;13.786;2023-12-28T07:32:46;2.55;;;1.40;;
15116;SDS011;7659;51.038;13.786;2023-12-28T07:35:11;1.98;;;1.20;;
15116;SDS011;7659;51.038;13.786;2023-12-28T07:37:37;3.38;;;1.08;;
15116;SDS011;7659;51.038;13.786;2023-12-28T07:40:03;4.35;;;1.42;;
15116;SDS011;7659;51.038;13.786;2023-12-28T07:42:29;2.28;;;1.25;;
15116;SDS011;7659;51.038;13.786;2023-12-28T07:44:54;3.42;;;1.30;;
15116;SDS011;7659;51.038;13.786;2023-12-28T07:47:20;3.95;;;1.55;;
15116;SDS011;7659;51.038;13.786;2023-12-28T07:49:45;3.97;;;1.92;;
15116;SDS011;7659;51.038;13.786;2023-12-28T07:52:11;6.72;;;1.70;;
15116;SDS011;7659;51.038;13.786;2023-12-28T07:54:36;2.92;;;1.42;;
15116;SDS011;7659;51.038;13.786;2023-12-28T07:57:02;4.15;;;1.70;;
15116;SDS011;7659;51.038;13.786;2023-12-28T07:59:27;4.22;;;2.10;;
15116;SDS011;7659;51.038;13.786;2023-12-28T08:01:53;3.95;;;1.73;;
15116;SDS011;7659;51.038;13.786;2023-12-28T08:04:18;5.07;;;2.00;;
15116;SDS011;7659;51.038;13.786;2023-12-28T08:06:43;3.97;;;1.77;;
15116;SDS011;7659;51.038;13.786;2023-12-28T08:09:09;3.65;;;1.80;;
15116;SDS011;7659;51.038;13.786;2023-12-28T08:11:35;3.22;;;1.60;;
15116;SDS011;7659;51.038;13.786;2023-12-28T08:14:00;4.43;;;1.98;;
15116;SDS011;7659;51.038;13.786;2023-12-28T08:16:26;4.47;;;1.65;;
15116;SDS011;7659;51.038;13.786;2023-12-28T08:18:52;5.13;;;2.10;;
15116;SDS011;7659;51.038;13.786;2023-12-28T08:21:17;5.63;;;1.92;;
15116;SDS011;7659;51.038;13.786;2023-12-28T08:23:43;8.32;;;1.48;;
15116;SDS011;7659;51.038;13.786;2023-12-28T08:26:09;5.32;;;2.15;;
15116;SDS011;7659;51.038;13.786;2023-12-28T08:28:35;3.65;;;1.48;;
15116;SDS011;7659;51.038;13.786;2023-12-28T08:31:00;5.63;;;1.60;;
15116;SDS011;7659;51.038;13.786;2023-12-28T08:33:26;2.55;;;1.80;;
15116;SDS011;7659;51.038;13.786;2023-12-28T08:35:51;3.78;;;1.40;;
15116;SDS011;7659;51.038;13.786;2023-12-28T08:38:17;2.55;;;1.42;;
15116;SDS011;7659;51.038;13.786;2023-12-28T08:40:42;2.03;;;1.25;;
15116;SDS011;7659;51.038;13.786;2023-12-28T08:43:09;3.38;;;1.48;;
15116;SDS011;7659;51.038;13.786;2023-12-28T08:45:35;2.38;;;1.20;;
15116;SDS011;7659;51.038;13.786;2023-12-28T08:48:01;2.20;;;1.05;;
15116;SDS011;7659;51.038;13.786;2023-12-28T08:50:26;3.13;;;1.13;;
15116;SDS011;7659;51.038;13.786;2023-12-28T08:52:52;4.10;;;1.20;;
15116;SDS011;7659;51.038;13.786;2023-12-28T08:55:17;4.75;;;1.50;;
15116;SDS011;7659;51.038;13.786;2023-12-28T08:57:43;4.20;;;1.45;;
15116;SDS011;7659;51.038;13.786;2023-12-28T09:00:09;1.35;;;1.17;;
15116;SDS011;7659;51.038;13.786;2023-12-28T09:02:35;2.97;;;1.13;;
15116;SDS011;7659;51.038;13.786;2023-12-28T09:05:01;1.98;;;1.30;;
15116;SDS011;7659;51.038;13.786;2023-12-28T09:07:26;2.97;;;1.50;;
15116;SDS011;7659;51.038;13.786;2023-12-28T09:09:52;2.45;;;1.35;;
15116;SDS011;7659;51.038;13.786;2023-12-28T09:12:17;3.72;;;1.20;;
15116;SDS011;7659;51.038;13.786;2023-12-28T09:14:43;2.00;;;1.15;;
15116;SDS011;7659;51.038;13.786;2023-12-28T09:17:09;2.83;;;1.40;;
15116;SDS011;7659;51.038;13.786;2023-12-28T09:19:34;3.67;;;1.40;;
15116;SDS011;7659;51.038;13.786;2023-12-28T09:22:00;1.83;;;1.20;;
15116;SDS011;7659;51.038;13.786;2023-12-28T09:24:25;3.50;;;1.30;;
15116;SDS011;7659;51.038;13.786;2023-12-28T09:26:51;6.85;;;3.15;;
15116;SDS011;7659;51.038;13.786;2023-12-28T09:29:16;10.13;;;4.57;;
15116;SDS011;7659;51.038;13.786;2023-12-28T09:31:42;3.85;;;1.90;;
15116;SDS011;7659;51.038;13.786;2023-12-28T09:34:08;5.45;;;1.48;;
15116;SDS011;7659;51.038;13.786;2023-12-28T09:36:34;1.55;;;1.10;;
15116;SDS011;7659;51.038;13.786;2023-12-28T09:38:59;2.17;;;1.10;;
15116;SDS011;7659;51.038;13.786;2023-12-28T09:41:26;3.50;;;1.30;;
15116;SDS011;7659;51.038;13.786;2023-12-28T09:46:20;2.47;;;1.48;;
15116;SDS011;7659;51.038;13.786;2023-12-28T09:48:46;1.92;;;1.17;;
15116;SDS011;7659;51.038;13.786;2023-12-28T09:51:12;2.40;;;1.10;;
15116;SDS011;7659;51.038;13.786;2023-12-28T09:53:37;3.83;;;1.33;;
15116;SDS011;7659;51.038;13.786;2023-12-28T09:56:03;3.55;;;1.40;;
15116;SDS011;7659;51.038;13.786;2023-12-28T09:58:29;1.75;;;1.33;;
15116;SDS011;7659;51.038;13.786;2023-12-28T10:00:57;2.88;;;1.60;;
15116;SDS011;7659;51.038;13.786;2023-12-28T10:03:24;3.08;;;1.17;;
15116;SDS011;7659;51.038;13.786;2023-12-28T10:05:50;2.78;;;1.40;;
15116;SDS011;7659;51.038;13.786;2023-12-28T10:08:15;3.15;;;1.52;;
15116;SDS011;7659;51.038;13.786;2023-12-28T10:10:41;4.85;;;1.50;;
15116;SDS011;7659;51.038;13.786;2023-12-28T10:13:07;2.00;;;1.33;;
15116;SDS011;7659;51.038;13.786;2023-12-28T10:15:35;2.30;;;1.60;;
15116;SDS011;7659;51.038;13.786;2023-12-28T10:18:01;2.92;;;1.63;;
15116;SDS011;7659;51.038;13.786;2023-12-28T10:20:28;4.43;;;2.28;;
15116;SDS011;7659;51.038;13.786;2023-12-28T10:22:54;3.22;;;2.28;;
15116;SDS011;7659;51.038;13.786;2023-12-28T10:25:19;3.25;;;1.85;;
15116;SDS011;7659;51.038;13.786;2023-12-28T10:27:45;5.20;;;1.25;;
15116;SDS011;7659;51.038;13.786;2023-12-28T10:30:10;2.25;;;1.38;;
15116;SDS011;7659;51.038;13.786;2023-12-28T10:32:39;3.33;;;1.90;;
15116;SDS011;7659;51.038;13.786;2023-12-28T10:35:05;3.60;;;1.70;;
15116;SDS011;7659;51.038;13.786;2023-12-28T10:37:31;3.08;;;1.50;;
15116;SDS011;7659;51.038;13.786;2023-12-28T10:39:57;5.25;;;2.03;;
15116;SDS011;7659;51.038;13.786;2023-12-28T10:42:34;4.70;;;1.60;;
15116;SDS011;7659;51.038;13.786;2023-12-28T10:47:28;3.10;;;1.73;;
15116;SDS011;7659;51.038;13.786;2023-12-28T10:49:56;2.33;;;1.45;;
15116;SDS011;7659;51.038;13.786;2023-12-28T10:52:25;3.25;;;1.38;;
15116;SDS011;7659;51.038;13.786;2023-12-28T10:57:40;11.55;;;6.85;;
15116;SDS011;7659;51.038;13.786;2023-12-28T11:00:10;7.57;;;3.15;;
15116;SDS011;7659;51.038;13.786;2023-12-28T11:02:56;3.53;;;1.50;;
15116;SDS011;7659;51.038;13.786;2023-12-28T11:05:23;1.65;;;1.52;;
15116;SDS011;7659;51.038;13.786;2023-12-28T11:07:49;4.88;;;2.28;;
15116;SDS011;7659;51.038;13.786;2023-12-28T11:10:19;2.47;;;1.60;;
15116;SDS011;7659;51.038;13.786;2023-12-28T11:12:45;3.15;;;1.73;;
15116;SDS011;7659;51.038;13.786;2023-12-28T11:15:11;2.38;;;1.38;;
15116;SDS011;7659;51.038;13.786;2023-12-28T11:17:37;1.88;;;1.30;;
15116;SDS011;7659;51.038;13.786;2023-12-28T11:20:03;3.17;;;1.73;;
15116;SDS011;7659;51.038;13.786;2023-12-28T11:22:30;2.05;;;1.23;;
15116;SDS011;7659;51.038;13.786;2023-12-28T11:24:56;3.47;;;1.90;;
15116;SDS011;7659;51.038;13.786;2023-12-28T11:27:22;2.05;;;0.90;;
15116;SDS011;7659;51.038;13.786;2023-12-28T11:29:48;2.40;;;1.40;;
15116;SDS011;7659;51.038;13.786;2023-12-28T11:32:14;3.17;;;1.50;;
15116;SDS011;7659;51.038;13.786;2023-12-28T11:34:40;5.30;;;1.40;;
15116;SDS011;7659;51.038;13.786;2023-12-28T11:37:17;3.13;;;1.60;;
15116;SDS011;7659;51.038;13.786;2023-12-28T11:39:44;3.13;;;1.17;;
15116;SDS011;7659;51.038;13.786;2023-12-28T11:42:09;8.93;;;3.95;;
15116;SDS011;7659;51.038;13.786;2023-12-28T11:44:39;3.72;;;1.48;;
15116;SDS011;7659;51.038;13.786;2023-12-28T11:47:14;2.08;;;1.42;;
15116;SDS011;7659;51.038;13.786;2023-12-28T11:49:40;3.28;;;1.48;;
15116;SDS011;7659;51.038;13.786;2023-12-28T11:52:06;4.38;;;1.33;;
15116;SDS011;7659;51.038;13.786;2023-12-28T11:54:32;1.85;;;1.30;;
15116;SDS011;7659;51.038;13.786;2023-12-28T11:56:57;3.30;;;1.25;;
15116;SDS011;7659;51.038;13.786;2023-12-28T11:59:23;2.20;;;1.20;;
15116;SDS011;7659;51.038;13.786;2023-12-28T12:01:52;2.75;;;1.40;;
15116;SDS011;7659;51.038;13.786;2023-12-28T12:04:18;3.55;;;1.60;;
15116;SDS011;7659;51.038;13.786;2023-12-28T12:06:44;3.33;;;1.55;;
15116;SDS011;7659;51.038;13.786;2023-12-28T12:09:10;3.53;;;1.27;;
15116;SDS011;7659;51.038;13.786;2023-12-28T12:11:36;2.10;;;1.05;;
15116;SDS011;7659;51.038;13.786;2023-12-28T12:14:03;3.75;;;1.25;;
15116;SDS011;7659;51.038;13.786;2023-12-28T12:16:31;1.67;;;1.10;;
15116;SDS011;7659;51.038;13.786;2023-12-28T12:18:57;2.53;;;1.13;;
15116;SDS011;7659;51.038;13.786;2023-12-28T12:21:23;1.75;;;0.95;;
15116;SDS011;7659;51.038;13.786;2023-12-28T12:23:49;3.97;;;1.45;;
15116;SDS011;7659;51.038;13.786;2023-12-28T12:26:17;1.60;;;1.15;;
15116;SDS011;7659;51.038;13.786;2023-12-28T12:28:43;2.80;;;1.58;;
15116;SDS011;7659;51.038;13.786;2023-12-28T12:31:13;4.55;;;1.73;;
15116;SDS011;7659;51.038;13.786;2023-12-28T12:33:39;9.10;;;2.05;;
15116;SDS011;7659;51.038;13.786;2023-12-28T12:36:07;2.30;;;1.55;;
15116;SDS011;7659;51.038;13.786;2023-12-28T12:38:33;2.00;;;1.30;;
15116;SDS011;7659;51.038;13.786;2023-12-28T12:40:59;3.22;;;1.38;;
15116;SDS011;7659;51.038;13.786;2023-12-28T12:43:24;6.72;;;1.33;;
15116;SDS011;7659;51.038;13.786;2023-12-28T12:45:50;3.00;;;1.35;;
15116;SDS011;7659;51.038;13.786;2023-12-28T12:48:16;2.22;;;1.40;;
15116;SDS011;7659;51.038;13.786;2023-12-28T12:50:42;1.88;;;1.02;;
15116;SDS011;7659;51.038;13.786;2023-12-28T12:53:08;2.03;;;1.25;;
15116;SDS011;7659;51.038;13.786;2023-12-28T12:55:33;3.95;;;1.20;;
15116;SDS011;7659;51.038;13.786;2023-12-28T12:57:59;2.20;;;1.13;;
15116;SDS011;7659;51.038;13.786;2023-12-28T13:00:24;1.38;;;1.00;;
15116;SDS011;7659;51.038;13.786;2023-12-28T13:02:50;2.33;;;1.08;;
15116;SDS011;7659;51.038;13.786;2023-12-28T13:05:20;1.77;;;1.00;;
15116;SDS011;7659;51.038;13.786;2023-12-28T13:07:45;2.10;;;1.10;;
15116;SDS011;7659;51.038;13.786;2023-12-28T13:10:11;4.80;;;1.17;;
15116;SDS011;7659;51.038;13.786;2023-12-28T13:12:37;1.90;;;1.15;;
15116;SDS011;7659;51.038;13.786;2023-12-28T13:15:03;2.83;;;0.98;;
15116;SDS011;7659;51.038;13.786;2023-12-28T13:17:29;2.60;;;1.40;;
15116;SDS011;7659;51.038;13.786;2023-12-28T13:19:55;3.65;;;1.15;;
15116;SDS011;7659;51.038;13.786;2023-12-28T13:22:20;2.13;;;1.23;;
15116;SDS011;7659;51.038;13.786;2023-12-28T13:24:46;5.35;;;1.50;;
15116;SDS011;7659;51.038;13.786;2023-12-28T13:27:11;1.67;;;1.10;;
15116;SDS011;7659;51.038;13.786;2023-12-28T13:29:37;2.05;;;1.23;;
15116;SDS011;7659;51.038;13.786;2023-12-28T13:32:03;1.77;;;1.10;;
15116;SDS011;7659;51.038;13.786;2023-12-28T13:34:29;2.35;;;1.30;;
15116;SDS011;7659;51.038;13.786;2023-12-28T13:36:54;2.08;;;1.40;;
15116;SDS011;7659;51.038;13.786;2023-12-28T13:39:20;3.20;;;1.38;;
15116;SDS011;7659;51.038;13.786;2023-12-28T13:41:45;1.67;;;1.23;;
15116;SDS011;7659;51.038;13.786;2023-12-28T13:44:10;2.40;;;1.20;;
15116;SDS011;7659;51.038;13.786;2023-12-28T13:46:40;2.03;;;1.42;;
15116;SDS011;7659;51.038;13.786;2023-12-28T13:49:05;2.67;;;1.55;;
15116;SDS011;7659;51.038;13.786;2023-12-28T13:51:33;1.77;;;1.20;;
15116;SDS011;7659;51.038;13.786;2023-12-28T13:53:58;2.22;;;1.40;;
15116;SDS011;7659;51.038;13.786;2023-12-28T13:56:24;2.45;;;1.20;;
15116;SDS011;7659;51.038;13.786;2023-12-28T13:58:49;3.10;;;1.13;;
15116;SDS011;7659;51.038;13.786;2023-12-28T14:01:15;2.35;;;1.00;;
15116;SDS011;7659;51.038;13.786;2023-12-28T14:03:40;1.65;;;1.08;;
15116;SDS011;7659;51.038;13.786;2023-12-28T14:06:06;1.85;;;1.00;;
15116;SDS011;7659;51.038;13.786;2023-12-28T14:08:31;2.17;;;1.08;;
15116;SDS011;7659;51.038;13.786;2023-12-28T14:10:57;3.72;;;1.30;;
15116;SDS011;7659;51.038;13.786;2023-12-28T14:13:23;2.35;;;1.20;;
15116;SDS011;7659;51.038;13.786;2023-12-28T14:15:48;5.07;;;1.40;;
15116;SDS011;7659;51.038;13.786;2023-12-28T14:18:14;1.25;;;0.90;;
15116;SDS011;7659;51.038;13.786;2023-12-28T14:20:39;2.50;;;1.30;;
15116;SDS011;7659;51.038;13.786;2023-12-28T14:23:05;1.88;;;1.02;;
15116;SDS011;7659;51.038;13.786;2023-12-28T14:25:30;2.50;;;1.10;;
15116;SDS011;7659;51.038;13.786;2023-12-28T14:27:56;2.35;;;1.13;;
15116;SDS011;7659;51.038;13.786;2023-12-28T14:30:22;2.58;;;1.20;;
15116;SDS011;7659;51.038;13.786;2023-12-28T14:32:47;2.70;;;0.93;;
15116;SDS011;7659;51.038;13.786;2023-12-28T14:35:13;1.38;;;1.10;;
15116;SDS011;7659;51.038;13.786;2023-12-28T14:37:42;2.67;;;1.40;;
15116;SDS011;7659;51.038;13.786;2023-12-28T14:40:07;4.32;;;0.93;;
15116;SDS011;7659;51.038;13.786;2023-12-28T14:42:35;3.42;;;1.48;;
15116;SDS011;7659;51.038;13.786;2023-12-28T14:45:00;1.17;;;0.90;;